Kaneohe Bay, Hawaii
Current Conditions -  °F | °C
As of 6:17 AM on Saturday 25 Oct 2014 (Local Time) from PHNG Reporting Station
Broken Clouds Broken Clouds  
Wind Chill: 78°   Ceiling: 2400
Heat Index: 80°   Visibility: 10mi
Dew Point: 72°   Wind: 6mph
Humidity: 81%   Direction: 90°E
Pressure: 30.02"   Gusts: NA
Location:  21.42°N, 157.8°W
Report Text: PHNG 251617Z 09005KT 10SM SCT019 BKN024 26/22 A3002 RMK AO2 RAB06E15 P0000 T02560222 $
Loading
Personal Weather Stations






























Interactive Weather Map
Tropical Storm Tracking
New forecast layout! Learn more

10-Day Weather Forecast

Advertisements
Track Severe Weather on mobile